Time;durP1;ratioP1;P1;durP2;ratioP2;P2;SDS_P1;SDS_P2;PMS_P1;PMS_P2;Temp;Humidity;BMP_temperature;BMP_pressure;BME280_temperature;BME280_humidity;BME280_pressure;Samples;Min_cycle;Max_cycle;Signal;HPM_P1;HPM_P2
2023/10/28 00:01:16;;;;;;;118.17;106.57;;;;;;;;;;5075856;28;20867;-88
2023/10/28 00:03:43;;;;;;;108.70;99.50;;;;;;;;;;5075627;28;20442;-88
2023/10/28 00:06:10;;;;;;;112.30;102.30;;;;;;;;;;5075790;28;20446;-88
2023/10/28 00:08:39;;;;;;;111.47;102.33;;;;;;;;;;5076008;28;20466;-88
2023/10/28 00:11:07;;;;;;;116.33;106.67;;;;;;;;;;5075558;28;20458;-87
2023/10/28 00:13:36;;;;;;;116.77;108.10;;;;;;;;;;5075862;28;20853;-87
2023/10/28 00:16:03;;;;;;;117.67;107.40;;;;;;;;;;5073679;28;20942;-88
2023/10/28 00:18:30;;;;;;;110.00;99.50;;;;;;;;;;5075723;28;20466;-88
2023/10/28 00:20:57;;;;;;;115.10;104.07;;;;;;;;;;5075459;28;20450;-88
2023/10/28 00:23:25;;;;;;;117.97;106.70;;;;;;;;;;5070280;28;20442;-88
2023/10/28 00:25:52;;;;;;;112.47;102.60;;;;;;;;;;5054960;28;21241;-88
2023/10/28 00:28:20;;;;;;;112.23;103.43;;;;;;;;;;5055590;28;20455;-87
2023/10/28 00:30:48;;;;;;;108.60;99.60;;;;;;;;;;5055659;28;20502;-87
2023/10/28 00:33:15;;;;;;;110.67;101.60;;;;;;;;;;5054016;28;20810;-87
2023/10/28 00:35:43;;;;;;;110.67;101.63;;;;;;;;;;5055201;28;20458;-87
2023/10/28 00:38:10;;;;;;;108.87;98.67;;;;;;;;;;5054947;28;20452;-87
2023/10/28 00:40:37;;;;;;;108.73;98.83;;;;;;;;;;5055565;28;20429;-88
2023/10/28 00:43:10;;;;;;;110.27;100.67;;;;;;;;;;5055134;28;20421;-88
2023/10/28 00:45:37;;;;;;;111.73;101.30;;;;;;;;;;5054684;28;20954;-88
2023/10/28 00:48:05;;;;;;;112.40;101.60;;;;;;;;;;5054752;28;20989;-88
2023/10/28 00:50:32;;;;;;;112.33;103.77;;;;;;;;;;5055293;28;21198;-87
2023/10/28 00:53:02;;;;;;;117.83;106.70;;;;;;;;;;5055361;28;20486;-88
2023/10/28 00:55:30;;;;;;;116.07;104.93;;;;;;;;;;5054163;28;20443;-87
2023/10/28 00:57:58;;;;;;;111.90;101.40;;;;;;;;;;5054477;28;20466;-88
2023/10/28 01:00:25;;;;;;;110.70;101.60;;;;;;;;;;5055371;28;20486;-88
2023/10/28 01:02:52;;;;;;;111.00;100.23;;;;;;;;;;5055221;28;20447;-88
2023/10/28 01:05:22;;;;;;;111.93;102.83;;;;;;;;;;5054712;28;20413;-87
2023/10/28 01:07:55;;;;;;;106.37;97.37;;;;;;;;;;5055196;28;20437;-88
2023/10/28 01:10:27;;;;;;;107.40;99.07;;;;;;;;;;5055223;28;20405;-88
2023/10/28 01:12:54;;;;;;;113.83;101.67;;;;;;;;;;5054841;28;20841;-88
2023/10/28 01:15:22;;;;;;;104.50;94.93;;;;;;;;;;5054509;28;20442;-87
2023/10/28 01:17:49;;;;;;;99.67;91.93;;;;;;;;;;5054988;28;20475;-88
2023/10/28 01:20:16;;;;;;;108.00;98.63;;;;;;;;;;5054592;28;20954;-87
2023/10/28 01:22:45;;;;;;;101.77;94.40;;;;;;;;;;5054635;28;20934;-87
2023/10/28 01:25:12;;;;;;;109.03;99.73;;;;;;;;;;5054666;28;20446;-87
2023/10/28 01:27:39;;;;;;;110.37;101.57;;;;;;;;;;5054308;28;20533;-88
2023/10/28 01:30:13;;;;;;;117.53;107.77;;;;;;;;;;5055409;28;20417;-88
2023/10/28 01:32:40;;;;;;;109.73;101.70;;;;;;;;;;5054849;28;20477;-87
2023/10/28 01:35:09;;;;;;;106.93;99.40;;;;;;;;;;5054217;28;20454;-88
2023/10/28 01:37:38;;;;;;;108.73;101.33;;;;;;;;;;5054466;28;20503;-87
2023/10/28 01:40:12;;;;;;;111.07;101.77;;;;;;;;;;5054746;28;20478;-87
2023/10/28 01:42:40;;;;;;;111.20;101.40;;;;;;;;;;5054189;28;20435;-86
2023/10/28 01:45:07;;;;;;;104.73;96.77;;;;;;;;;;5054540;28;20460;-87
2023/10/28 01:47:34;;;;;;;106.17;98.83;;;;;;;;;;5054199;28;20516;-88
2023/10/28 01:50:01;;;;;;;101.00;94.20;;;;;;;;;;5054137;28;20451;-86
2023/10/28 01:52:29;;;;;;;102.40;94.90;;;;;;;;;;5054772;28;20498;-87
2023/10/28 01:54:56;;;;;;;99.07;92.20;;;;;;;;;;5054173;28;20493;-87
2023/10/28 01:57:24;;;;;;;103.27;96.30;;;;;;;;;;5054549;28;20464;-87
2023/10/28 01:59:52;;;;;;;105.90;98.27;;;;;;;;;;5054636;28;20442;-87
2023/10/28 02:02:19;;;;;;;97.77;90.23;;;;;;;;;;5055231;28;20443;-86
2023/10/28 02:04:47;;;;;;;103.40;96.47;;;;;;;;;;5053973;28;20417;-86
2023/10/28 02:07:14;;;;;;;98.37;91.53;;;;;;;;;;5054363;28;20463;-88
2023/10/28 02:09:41;;;;;;;100.87;93.93;;;;;;;;;;5054856;28;20413;-87
2023/10/28 02:12:08;;;;;;;101.07;93.33;;;;;;;;;;5054697;28;20432;-87
2023/10/28 02:14:37;;;;;;;99.13;91.90;;;;;;;;;;5053940;28;20860;-86
2023/10/28 02:17:04;;;;;;;100.87;94.00;;;;;;;;;;5054554;28;20445;-87
2023/10/28 02:19:31;;;;;;;94.27;88.30;;;;;;;;;;5054905;28;20447;-87
2023/10/28 02:21:59;;;;;;;98.33;92.10;;;;;;;;;;5054364;28;20452;-85
2023/10/28 02:24:26;;;;;;;95.13;89.20;;;;;;;;;;5054715;28;20433;-86
2023/10/28 02:26:53;;;;;;;104.80;96.80;;;;;;;;;;5054826;28;20452;-87
2023/10/28 02:29:21;;;;;;;101.80;94.43;;;;;;;;;;5054240;28;20449;-87
2023/10/28 02:31:49;;;;;;;93.70;87.30;;;;;;;;;;5055329;28;20451;-87
2023/10/28 02:34:17;;;;;;;94.30;87.70;;;;;;;;;;5054158;28;20478;-87
2023/10/28 02:36:44;;;;;;;95.17;88.60;;;;;;;;;;5055304;28;20481;-87
2023/10/28 02:39:12;;;;;;;95.97;89.53;;;;;;;;;;5055733;28;20421;-86
2023/10/28 02:41:40;;;;;;;93.67;87.73;;;;;;;;;;5058632;28;20480;-86
2023/10/28 02:44:07;;;;;;;93.27;87.07;;;;;;;;;;5057975;28;20451;-87
2023/10/28 02:46:34;;;;;;;93.83;87.43;;;;;;;;;;5058275;28;20447;-87
2023/10/28 02:49:02;;;;;;;93.30;87.20;;;;;;;;;;5058563;28;20483;-87
2023/10/28 02:51:29;;;;;;;93.60;87.77;;;;;;;;;;5058299;28;20435;-88
2023/10/28 02:53:58;;;;;;;89.97;83.83;;;;;;;;;;5057675;28;20487;-86
2023/10/28 02:56:26;;;;;;;86.33;80.37;;;;;;;;;;5058159;28;20458;-86
2023/10/28 02:58:53;;;;;;;90.93;84.70;;;;;;;;;;5058550;28;20446;-87
2023/10/28 03:01:20;;;;;;;88.27;82.47;;;;;;;;;;5058199;28;20926;-86
2023/10/28 03:03:47;;;;;;;94.27;87.13;;;;;;;;;;5057140;28;20410;-88
2023/10/28 03:06:16;;;;;;;91.90;86.00;;;;;;;;;;5057077;28;20458;-89
2023/10/28 03:08:44;;;;;;;98.40;90.17;;;;;;;;;;5057285;28;20777;-88
2023/10/28 03:11:11;;;;;;;84.90;78.93;;;;;;;;;;5057106;28;20425;-88
2023/10/28 03:13:38;;;;;;;87.77;81.20;;;;;;;;;;5057410;28;20498;-87
2023/10/28 03:16:06;;;;;;;92.37;86.50;;;;;;;;;;5057223;28;20447;-88
2023/10/28 03:18:33;;;;;;;86.83;81.43;;;;;;;;;;5057460;28;20478;-87
2023/10/28 03:21:00;;;;;;;92.77;86.13;;;;;;;;;;5057802;28;20529;-88
2023/10/28 03:23:29;;;;;;;94.00;86.57;;;;;;;;;;5057605;28;20461;-87
2023/10/28 03:25:56;;;;;;;96.40;88.60;;;;;;;;;;5056993;28;20473;-88
2023/10/28 03:28:23;;;;;;;89.93;83.80;;;;;;;;;;5057190;28;20969;-88
2023/10/28 03:30:50;;;;;;;94.03;86.73;;;;;;;;;;5057041;28;20901;-88
2023/10/28 03:33:17;;;;;;;98.10;91.23;;;;;;;;;;5057199;28;20539;-88
2023/10/28 03:35:45;;;;;;;98.23;90.80;;;;;;;;;;5056497;28;20458;-87
2023/10/28 03:38:12;;;;;;;96.23;89.33;;;;;;;;;;5056862;28;20466;-88
2023/10/28 03:40:40;;;;;;;97.00;90.20;;;;;;;;;;5057092;28;20443;-88
2023/10/28 03:43:07;;;;;;;98.90;91.03;;;;;;;;;;5057022;28;20437;-88
2023/10/28 03:45:37;;;;;;;94.30;86.70;;;;;;;;;;5056189;28;20450;-88
2023/10/28 03:48:04;;;;;;;100.33;92.10;;;;;;;;;;5057189;28;20426;-88
2023/10/28 03:50:31;;;;;;;91.53;85.83;;;;;;;;;;5056564;28;20804;-88
2023/10/28 03:52:58;;;;;;;88.43;82.50;;;;;;;;;;5056335;28;20453;-88
2023/10/28 03:55:26;;;;;;;96.27;89.70;;;;;;;;;;5055970;28;20779;-88
2023/10/28 03:58:07;;;;;;;93.40;86.60;;;;;;;;;;5056401;28;20474;-88
2023/10/28 04:00:34;;;;;;;93.17;86.33;;;;;;;;;;5056239;28;20450;-88
2023/10/28 04:03:02;;;;;;;92.80;86.40;;;;;;;;;;5056422;28;20853;-88
2023/10/28 04:05:29;;;;;;;95.00;88.60;;;;;;;;;;5056168;28;20421;-87
2023/10/28 04:07:56;;;;;;;93.77;87.63;;;;;;;;;;5056669;28;20463;-88
2023/10/28 04:10:24;;;;;;;89.07;83.07;;;;;;;;;;5056433;28;20832;-88
2023/10/28 04:12:51;;;;;;;94.90;88.40;;;;;;;;;;5056549;28;20434;-88
2023/10/28 04:15:20;;;;;;;93.30;86.60;;;;;;;;;;5056039;28;20451;-88
2023/10/28 04:17:47;;;;;;;87.70;81.53;;;;;;;;;;5056278;28;20470;-88
2023/10/28 04:20:14;;;;;;;92.03;85.80;;;;;;;;;;5055950;28;20425;-87
2023/10/28 04:22:41;;;;;;;90.73;85.07;;;;;;;;;;5056035;28;20466;-87
2023/10/28 04:25:08;;;;;;;93.87;86.27;;;;;;;;;;5055749;28;20478;-88
2023/10/28 04:27:36;;;;;;;86.03;80.40;;;;;;;;;;5056101;28;20445;-88
2023/10/28 04:30:04;;;;;;;87.47;82.10;;;;;;;;;;5056585;28;20759;-88
2023/10/28 04:32:33;;;;;;;87.43;82.03;;;;;;;;;;5056408;28;20425;-88
2023/10/28 04:35:00;;;;;;;87.87;81.50;;;;;;;;;;5055489;28;20512;-88
2023/10/28 04:37:27;;;;;;;86.60;80.70;;;;;;;;;;5055847;28;20438;-88
2023/10/28 04:39:54;;;;;;;88.77;82.37;;;;;;;;;;5056004;28;20421;-87
2023/10/28 04:42:21;;;;;;;89.37;83.60;;;;;;;;;;5055140;28;20927;-88
2023/10/28 04:44:48;;;;;;;84.37;78.20;;;;;;;;;;5055213;28;20436;-87
2023/10/28 04:47:16;;;;;;;81.23;74.50;;;;;;;;;;5055737;28;20482;-88
2023/10/28 04:49:44;;;;;;;90.63;83.63;;;;;;;;;;5055841;28;20455;-87
2023/10/28 04:52:11;;;;;;;91.50;85.13;;;;;;;;;;5056014;28;20451;-88
2023/10/28 04:54:39;;;;;;;93.67;86.50;;;;;;;;;;5054626;28;20478;-88
2023/10/28 04:57:06;;;;;;;89.67;84.07;;;;;;;;;;5055302;28;20477;-87
2023/10/28 04:59:33;;;;;;;90.50;84.43;;;;;;;;;;5055370;28;20974;-88
2023/10/28 05:02:01;;;;;;;91.20;84.10;;;;;;;;;;5054742;28;20508;-86
2023/10/28 05:04:28;;;;;;;92.03;85.57;;;;;;;;;;5053905;28;20465;-88
2023/10/28 05:06:56;;;;;;;90.97;85.07;;;;;;;;;;5066952;28;20497;-88
2023/10/28 05:09:23;;;;;;;95.17;88.97;;;;;;;;;;5072189;28;20443;-88
2023/10/28 05:11:50;;;;;;;90.20;84.17;;;;;;;;;;5054757;28;20426;-88
2023/10/28 05:14:17;;;;;;;93.20;86.00;;;;;;;;;;5054247;28;20486;-88
2023/10/28 05:16:44;;;;;;;88.27;81.77;;;;;;;;;;5055450;28;20949;-88
2023/10/28 05:19:11;;;;;;;85.37;79.37;;;;;;;;;;5055709;28;20446;-88
2023/10/28 05:21:39;;;;;;;86.40;80.87;;;;;;;;;;5056066;28;20450;-87
2023/10/28 05:24:09;;;;;;;91.60;85.80;;;;;;;;;;5054942;28;20481;-86
2023/10/28 05:26:36;;;;;;;91.10;84.00;;;;;;;;;;5055969;28;20451;-88
2023/10/28 05:29:03;;;;;;;95.70;87.60;;;;;;;;;;5055256;28;20429;-88
2023/10/28 05:31:30;;;;;;;94.53;87.93;;;;;;;;;;5055612;28;20450;-87
2023/10/28 05:33:57;;;;;;;97.27;90.73;;;;;;;;;;5055195;28;20483;-87
2023/10/28 05:36:25;;;;;;;93.00;87.00;;;;;;;;;;5055288;28;20428;-88
2023/10/28 05:38:54;;;;;;;93.63;87.33;;;;;;;;;;5054977;28;20452;-86
2023/10/28 05:41:23;;;;;;;97.83;90.03;;;;;;;;;;5055091;28;20459;-87
2023/10/28 05:43:50;;;;;;;94.30;87.20;;;;;;;;;;5054785;28;20470;-87
2023/10/28 05:46:19;;;;;;;92.20;85.00;;;;;;;;;;5056695;28;20453;-86
2023/10/28 05:48:46;;;;;;;94.00;87.80;;;;;;;;;;5056439;28;20541;-87
2023/10/28 05:51:13;;;;;;;97.67;91.27;;;;;;;;;;5056773;28;20450;-88
2023/10/28 05:53:40;;;;;;;88.87;82.90;;;;;;;;;;5056454;28;20466;-87
2023/10/28 05:56:07;;;;;;;93.97;87.30;;;;;;;;;;5056503;28;20451;-88
2023/10/28 05:58:36;;;;;;;95.10;89.07;;;;;;;;;;5056658;28;20462;-88
2023/10/28 06:01:03;;;;;;;103.37;96.17;;;;;;;;;;5056192;28;20537;-86
2023/10/28 06:03:30;;;;;;;107.00;99.80;;;;;;;;;;5056711;28;21103;-87
2023/10/28 06:05:57;;;;;;;108.83;101.53;;;;;;;;;;5056044;28;20435;-87
2023/10/28 06:08:24;;;;;;;102.80;96.40;;;;;;;;;;5056850;28;20441;-86
2023/10/28 06:10:52;;;;;;;102.07;95.13;;;;;;;;;;5056443;28;20461;-88
2023/10/28 06:13:19;;;;;;;104.63;97.60;;;;;;;;;;5057904;28;20493;-87
2023/10/28 06:15:47;;;;;;;101.10;94.53;;;;;;;;;;5059290;28;20446;-87
2023/10/28 06:18:14;;;;;;;103.07;96.10;;;;;;;;;;5060240;28;20444;-86
2023/10/28 06:20:42;;;;;;;102.67;96.27;;;;;;;;;;5060038;28;20427;-86
2023/10/28 06:23:09;;;;;;;99.47;93.10;;;;;;;;;;5059992;28;20478;-88
2023/10/28 06:25:36;;;;;;;100.30;94.07;;;;;;;;;;5059436;28;20456;-86
2023/10/28 06:28:05;;;;;;;102.70;95.80;;;;;;;;;;5060458;28;20429;-87
2023/10/28 06:30:33;;;;;;;98.40;91.43;;;;;;;;;;5059989;28;20504;-87
2023/10/28 06:33:02;;;;;;;93.63;87.83;;;;;;;;;;5059950;28;20477;-87
2023/10/28 06:35:30;;;;;;;104.27;96.27;;;;;;;;;;5059579;28;20556;-87
2023/10/28 06:37:57;;;;;;;93.20;87.50;;;;;;;;;;5060060;28;20469;-87
2023/10/28 06:40:24;;;;;;;96.00;89.80;;;;;;;;;;5059633;28;20450;-87
2023/10/28 06:42:51;;;;;;;92.27;86.50;;;;;;;;;;5059302;28;20512;-87
2023/10/28 06:45:18;;;;;;;92.07;86.47;;;;;;;;;;5058809;28;20438;-87
2023/10/28 06:47:53;;;;;;;98.13;91.60;;;;;;;;;;5059381;28;20466;-88
2023/10/28 06:50:21;;;;;;;97.23;89.83;;;;;;;;;;5059499;28;20474;-87
2023/10/28 06:52:49;;;;;;;99.20;93.20;;;;;;;;;;5076739;28;20424;-88
2023/10/28 06:55:17;;;;;;;89.93;84.47;;;;;;;;;;5077354;28;20489;-88
2023/10/28 06:57:51;;;;;;;94.77;88.63;;;;;;;;;;5072445;28;21006;-88
2023/10/28 07:00:18;;;;;;;95.20;89.07;;;;;;;;;;5058066;28;20827;-88
2023/10/28 07:02:46;;;;;;;91.93;86.23;;;;;;;;;;5057845;28;20454;-81
2023/10/28 07:05:14;;;;;;;93.80;87.30;;;;;;;;;;5061249;28;20432;-84
2023/10/28 07:07:43;;;;;;;91.90;85.87;;;;;;;;;;5060893;28;20485;-83
2023/10/28 07:10:14;;;;;;;90.83;84.53;;;;;;;;;;5059319;28;20933;-88
2023/10/28 07:12:41;;;;;;;83.90;78.17;;;;;;;;;;5061346;28;20474;-88
2023/10/28 07:15:09;;;;;;;90.40;84.27;;;;;;;;;;5056815;28;20569;-88
2023/10/28 07:17:36;;;;;;;91.60;85.90;;;;;;;;;;5058817;28;21044;-83
2023/10/28 07:20:04;;;;;;;93.03;86.43;;;;;;;;;;5061126;28;20462;-84
2023/10/28 07:22:31;;;;;;;97.87;91.50;;;;;;;;;;5062754;28;20460;-83
2023/10/28 07:25:00;;;;;;;94.60;88.40;;;;;;;;;;5076588;28;20576;-82
2023/10/28 07:27:28;;;;;;;95.97;89.77;;;;;;;;;;5063246;28;20469;-86
2023/10/28 07:29:55;;;;;;;95.47;89.47;;;;;;;;;;5080806;28;20430;-82
2023/10/28 07:32:22;;;;;;;92.87;86.27;;;;;;;;;;5081084;28;20449;-83
2023/10/28 07:34:50;;;;;;;89.30;83.87;;;;;;;;;;5080721;28;20841;-82
2023/10/28 07:37:17;;;;;;;87.37;81.77;;;;;;;;;;5081391;28;20470;-83
2023/10/28 07:39:45;;;;;;;96.50;90.00;;;;;;;;;;5081420;28;20483;-82
2023/10/28 07:42:15;;;;;;;87.37;81.93;;;;;;;;;;5080841;28;20416;-83
2023/10/28 07:44:42;;;;;;;85.47;80.17;;;;;;;;;;5080962;28;20416;-82
2023/10/28 07:47:10;;;;;;;87.27;81.93;;;;;;;;;;5081536;28;20474;-83
2023/10/28 07:49:38;;;;;;;90.23;84.70;;;;;;;;;;5081205;28;20450;-82
2023/10/28 07:52:05;;;;;;;86.50;81.13;;;;;;;;;;5081545;28;20477;-82
2023/10/28 07:54:32;;;;;;;88.07;82.50;;;;;;;;;;5062398;28;20490;-75
2023/10/28 07:56:59;;;;;;;88.03;82.60;;;;;;;;;;5051955;28;20578;-74
2023/10/28 07:59:28;;;;;;;91.60;86.10;;;;;;;;;;5052218;28;20443;-75
2023/10/28 08:01:55;;;;;;;89.23;83.30;;;;;;;;;;5052185;28;20446;-75
2023/10/28 08:04:22;;;;;;;83.67;78.70;;;;;;;;;;5051284;28;20897;-74
2023/10/28 08:06:51;;;;;;;81.10;76.30;;;;;;;;;;5051796;28;20520;-74
2023/10/28 08:09:18;;;;;;;82.60;77.60;;;;;;;;;;5051848;28;20567;-75
2023/10/28 08:11:45;;;;;;;84.40;79.47;;;;;;;;;;5058759;28;20481;-74
2023/10/28 08:14:13;;;;;;;83.70;78.73;;;;;;;;;;5058257;28;20794;-74
2023/10/28 08:16:42;;;;;;;81.30;76.57;;;;;;;;;;5051858;28;20458;-74
2023/10/28 08:19:12;;;;;;;79.50;74.80;;;;;;;;;;5051533;28;20442;-75
2023/10/28 08:21:39;;;;;;;76.27;71.97;;;;;;;;;;5051384;28;20458;-74
2023/10/28 08:24:08;;;;;;;75.93;71.83;;;;;;;;;;5051257;28;20451;-74
2023/10/28 08:26:36;;;;;;;82.47;78.07;;;;;;;;;;5051623;28;20447;-74
2023/10/28 08:29:03;;;;;;;76.80;72.47;;;;;;;;;;5051340;28;21045;-74
2023/10/28 08:31:30;;;;;;;76.13;71.93;;;;;;;;;;5051373;28;20485;-74
2023/10/28 08:34:01;;;;;;;77.20;72.60;;;;;;;;;;5050833;28;20449;-75
2023/10/28 08:36:29;;;;;;;76.83;72.73;;;;;;;;;;5049879;28;20509;-75
2023/10/28 08:38:56;;;;;;;82.90;78.30;;;;;;;;;;5069070;28;20902;-73
2023/10/28 08:41:23;;;;;;;79.70;75.13;;;;;;;;;;5064553;28;20463;-75
2023/10/28 08:43:50;;;;;;;76.40;72.00;;;;;;;;;;5050815;28;20453;-74
2023/10/28 08:46:18;;;;;;;79.10;74.47;;;;;;;;;;5051043;28;20525;-73
2023/10/28 08:48:45;;;;;;;77.73;73.60;;;;;;;;;;5050776;28;20554;-74
2023/10/28 08:51:14;;;;;;;76.53;72.23;;;;;;;;;;5051156;28;20449;-74
2023/10/28 08:53:42;;;;;;;79.53;75.13;;;;;;;;;;5050874;28;20451;-73
2023/10/28 08:56:09;;;;;;;78.70;74.27;;;;;;;;;;5050317;28;21014;-74
2023/10/28 08:58:38;;;;;;;78.00;73.70;;;;;;;;;;5051450;28;20502;-74
2023/10/28 09:01:05;;;;;;;76.10;71.87;;;;;;;;;;5051036;28;20446;-75
2023/10/28 09:03:34;;;;;;;78.43;74.17;;;;;;;;;;5050844;28;20504;-75
2023/10/28 09:06:04;;;;;;;72.83;68.17;;;;;;;;;;5050385;28;20897;-74
2023/10/28 09:08:32;;;;;;;71.07;66.43;;;;;;;;;;5050896;28;20470;-75
2023/10/28 09:11:00;;;;;;;68.60;64.50;;;;;;;;;;5057746;28;20516;-75
2023/10/28 09:13:28;;;;;;;70.53;66.63;;;;;;;;;;5051076;28;20520;-74
2023/10/28 09:15:55;;;;;;;70.13;65.73;;;;;;;;;;5049984;28;20853;-73
2023/10/28 09:18:22;;;;;;;70.60;66.90;;;;;;;;;;5050323;28;20470;-75
2023/10/28 09:20:49;;;;;;;67.13;63.17;;;;;;;;;;5050518;28;20425;-74
2023/10/28 09:23:16;;;;;;;64.70;61.20;;;;;;;;;;5050896;28;20834;-78
2023/10/28 09:25:45;;;;;;;65.90;62.53;;;;;;;;;;5050053;28;20830;-79
2023/10/28 09:28:16;;;;;;;66.80;63.00;;;;;;;;;;5050267;28;21001;-77
2023/10/28 09:30:46;;;;;;;65.30;61.77;;;;;;;;;;5050650;28;20416;-76
2023/10/28 09:33:14;;;;;;;64.03;60.73;;;;;;;;;;5050567;28;20463;-77
2023/10/28 09:35:43;;;;;;;59.77;56.63;;;;;;;;;;5049812;28;20486;-76
2023/10/28 09:38:12;;;;;;;61.60;58.10;;;;;;;;;;5050369;28;20475;-77
2023/10/28 09:40:39;;;;;;;58.60;55.50;;;;;;;;;;5049961;28;21062;-77
2023/10/28 09:43:07;;;;;;;60.53;57.43;;;;;;;;;;5050579;28;20449;-77
2023/10/28 09:45:35;;;;;;;60.77;57.67;;;;;;;;;;5049801;28;20576;-77
2023/10/28 09:48:06;;;;;;;56.00;53.10;;;;;;;;;;5066856;28;20531;-76
2023/10/28 09:50:35;;;;;;;57.83;54.57;;;;;;;;;;5070096;28;20450;-77
2023/10/28 09:53:04;;;;;;;59.60;56.27;;;;;;;;;;5069970;28;20532;-77
2023/10/28 09:55:35;;;;;;;58.23;55.13;;;;;;;;;;5069648;28;20506;-77
2023/10/28 09:58:04;;;;;;;58.13;54.80;;;;;;;;;;5054294;28;20873;-77
2023/10/28 10:00:33;;;;;;;54.77;51.80;;;;;;;;;;5050270;28;20495;-78
2023/10/28 10:03:05;;;;;;;53.30;50.60;;;;;;;;;;5050056;28;20459;-76
2023/10/28 10:05:36;;;;;;;52.70;50.10;;;;;;;;;;5049672;28;21164;-77
2023/10/28 10:08:06;;;;;;;53.60;50.90;;;;;;;;;;5049874;28;20479;-76
2023/10/28 10:10:42;;;;;;;54.80;52.10;;;;;;;;;;5049729;28;20458;-77
2023/10/28 10:13:09;;;;;;;51.70;49.10;;;;;;;;;;5049833;28;20973;-77
2023/10/28 10:15:38;;;;;;;51.30;48.80;;;;;;;;;;5049154;28;20468;-77
2023/10/28 10:18:10;;;;;;;50.40;48.00;;;;;;;;;;5049466;28;20448;-76
2023/10/28 10:20:38;;;;;;;45.57;43.17;;;;;;;;;;5049949;28;20406;-76
2023/10/28 10:23:05;;;;;;;44.30;42.10;;;;;;;;;;5049570;28;20965;-77
2023/10/28 10:25:32;;;;;;;42.87;40.80;;;;;;;;;;5049204;28;20449;-77
2023/10/28 10:28:07;;;;;;;44.37;42.17;;;;;;;;;;5049766;28;20479;-75
2023/10/28 10:30:34;;;;;;;40.13;38.03;;;;;;;;;;5050053;28;20487;-77
2023/10/28 10:33:03;;;;;;;39.63;37.60;;;;;;;;;;5049743;28;20443;-77
2023/10/28 10:35:31;;;;;;;38.17;36.23;;;;;;;;;;5049151;28;20486;-77
2023/10/28 10:38:02;;;;;;;34.60;32.90;;;;;;;;;;5049700;28;20909;-77
2023/10/28 10:40:32;;;;;;;33.90;32.30;;;;;;;;;;5049551;28;20478;-76
2023/10/28 10:43:05;;;;;;;34.80;33.00;;;;;;;;;;5049450;28;20536;-76
2023/10/28 10:45:32;;;;;;;32.53;31.03;;;;;;;;;;5048961;28;20442;-77
2023/10/28 10:47:59;;;;;;;33.63;32.03;;;;;;;;;;5049541;28;20453;-77
2023/10/28 10:50:28;;;;;;;34.00;32.27;;;;;;;;;;5049583;28;20950;-77
2023/10/28 10:52:56;;;;;;;32.40;30.70;;;;;;;;;;5049902;28;20462;-76
2023/10/28 10:55:23;;;;;;;33.37;31.77;;;;;;;;;;5048704;28;20890;-77
2023/10/28 10:57:51;;;;;;;31.30;29.67;;;;;;;;;;5049501;28;20471;-77
2023/10/28 11:00:18;;;;;;;31.40;29.40;;;;;;;;;;5050857;28;20401;-77
2023/10/28 11:02:45;;;;;;;31.13;29.33;;;;;;;;;;5053439;28;20425;-77
2023/10/28 11:05:14;;;;;;;32.83;30.80;;;;;;;;;;5052814;28;20442;-76
2023/10/28 11:07:45;;;;;;;32.50;30.53;;;;;;;;;;5052992;28;20855;-77
2023/10/28 11:10:12;;;;;;;34.23;32.40;;;;;;;;;;5053188;28;20553;-76
2023/10/28 11:12:42;;;;;;;34.33;32.53;;;;;;;;;;5053293;28;20454;-77
2023/10/28 11:15:10;;;;;;;36.10;34.30;;;;;;;;;;5052301;28;20474;-76
2023/10/28 11:17:37;;;;;;;34.30;32.30;;;;;;;;;;5053242;28;20535;-76
2023/10/28 11:20:06;;;;;;;33.43;31.70;;;;;;;;;;5052899;28;20911;-76
2023/10/28 11:22:33;;;;;;;32.30;30.60;;;;;;;;;;5053136;28;20446;-76
2023/10/28 11:25:04;;;;;;;31.53;29.87;;;;;;;;;;5052340;28;20461;-77
2023/10/28 11:27:31;;;;;;;33.00;31.10;;;;;;;;;;5052823;28;21034;-77
2023/10/28 11:29:58;;;;;;;31.57;29.73;;;;;;;;;;5052774;28;20454;-76
2023/10/28 11:32:26;;;;;;;31.70;30.20;;;;;;;;;;5053190;28;20449;-76
2023/10/28 11:34:53;;;;;;;31.40;29.70;;;;;;;;;;5052379;28;20425;-77
2023/10/28 11:37:20;;;;;;;33.97;31.97;;;;;;;;;;5052891;28;20478;-76
2023/10/28 11:39:49;;;;;;;32.37;30.57;;;;;;;;;;5052960;28;20489;-76
2023/10/28 11:42:18;;;;;;;32.20;30.50;;;;;;;;;;5052598;28;20762;-76
2023/10/28 11:44:48;;;;;;;32.30;30.70;;;;;;;;;;5052165;28;20428;-76
2023/10/28 11:47:15;;;;;;;33.57;31.60;;;;;;;;;;5054310;28;20567;-77
2023/10/28 11:49:42;;;;;;;32.10;30.40;;;;;;;;;;5059233;28;20450;-76
2023/10/28 11:52:11;;;;;;;34.00;32.23;;;;;;;;;;5063671;28;20934;-77
2023/10/28 11:54:38;;;;;;;34.00;32.33;;;;;;;;;;5052324;28;20494;-77
2023/10/28 11:57:06;;;;;;;32.10;30.37;;;;;;;;;;5056875;28;20493;-76
2023/10/28 11:59:34;;;;;;;31.37;29.77;;;;;;;;;;5071090;28;20840;-76
2023/10/28 12:02:01;;;;;;;28.90;27.50;;;;;;;;;;5057648;28;20921;-77
2023/10/28 12:04:28;;;;;;;30.23;28.73;;;;;;;;;;5052044;28;20428;-78
2023/10/28 12:06:57;;;;;;;29.40;28.00;;;;;;;;;;5052866;28;20438;-79
2023/10/28 12:09:25;;;;;;;31.40;29.60;;;;;;;;;;5052867;28;20421;-77
2023/10/28 12:11:52;;;;;;;30.63;29.00;;;;;;;;;;5052262;28;20432;-77
2023/10/28 12:14:19;;;;;;;28.60;27.20;;;;;;;;;;5051955;28;20443;-76
2023/10/28 12:16:47;;;;;;;30.73;29.03;;;;;;;;;;5052186;28;20476;-76
2023/10/28 12:19:16;;;;;;;28.10;26.70;;;;;;;;;;5052337;28;20439;-76
2023/10/28 12:21:43;;;;;;;29.30;27.83;;;;;;;;;;5052178;28;20417;-76
2023/10/28 12:24:11;;;;;;;29.87;28.40;;;;;;;;;;5051462;28;20458;-77
2023/10/28 12:26:38;;;;;;;27.00;25.50;;;;;;;;;;5051885;28;20529;-77
2023/10/28 12:29:06;;;;;;;26.70;25.30;;;;;;;;;;5051549;28;20454;-76
2023/10/28 12:31:33;;;;;;;26.00;24.80;;;;;;;;;;5050993;28;20978;-77
2023/10/28 12:34:03;;;;;;;27.03;25.53;;;;;;;;;;5050890;28;20451;-76
2023/10/28 12:36:30;;;;;;;23.97;22.87;;;;;;;;;;5051181;28;21040;-77
2023/10/28 12:38:57;;;;;;;23.83;22.73;;;;;;;;;;5051369;28;20545;-76
2023/10/28 12:41:24;;;;;;;24.40;23.30;;;;;;;;;;5051307;28;20447;-77
2023/10/28 12:43:51;;;;;;;26.73;24.93;;;;;;;;;;5050740;28;20446;-76
2023/10/28 12:46:18;;;;;;;25.13;23.63;;;;;;;;;;5051418;28;20848;-77
2023/10/28 12:48:45;;;;;;;25.67;24.43;;;;;;;;;;5051023;28;20462;-78
2023/10/28 12:51:14;;;;;;;25.13;24.03;;;;;;;;;;5051167;28;20450;-77
2023/10/28 12:53:41;;;;;;;25.93;24.63;;;;;;;;;;5051106;28;20549;-76
2023/10/28 12:56:09;;;;;;;25.10;23.83;;;;;;;;;;5050747;28;20489;-76
2023/10/28 12:58:36;;;;;;;27.03;25.00;;;;;;;;;;5051099;28;20449;-79
2023/10/28 13:01:03;;;;;;;27.10;25.70;;;;;;;;;;5051217;28;20421;-77
2023/10/28 13:03:30;;;;;;;25.50;24.20;;;;;;;;;;5049903;28;20482;-76
2023/10/28 13:05:57;;;;;;;25.67;23.97;;;;;;;;;;5050728;28;20443;-77
2023/10/28 13:08:27;;;;;;;27.70;26.40;;;;;;;;;;5051033;28;20485;-77
2023/10/28 13:10:55;;;;;;;27.23;25.90;;;;;;;;;;5052309;28;20500;-80
2023/10/28 13:13:23;;;;;;;26.40;25.10;;;;;;;;;;5051217;28;20450;-75
2023/10/28 13:15:50;;;;;;;26.30;25.00;;;;;;;;;;5049449;28;20558;-79
2023/10/28 13:18:17;;;;;;;26.33;25.13;;;;;;;;;;5050674;28;20455;-77
2023/10/28 13:20:44;;;;;;;25.90;24.50;;;;;;;;;;5050838;28;20443;-75
2023/10/28 13:23:12;;;;;;;25.10;23.80;;;;;;;;;;5050305;28;20812;-78
2023/10/28 13:25:40;;;;;;;25.23;23.93;;;;;;;;;;5050179;28;20550;-76
2023/10/28 13:28:09;;;;;;;25.23;24.03;;;;;;;;;;5050538;28;20494;-77
2023/10/28 13:30:37;;;;;;;25.47;24.10;;;;;;;;;;5050482;28;20553;-76
2023/10/28 13:33:04;;;;;;;25.50;23.87;;;;;;;;;;5050508;28;20447;-77
2023/10/28 13:35:32;;;;;;;23.20;22.10;;;;;;;;;;5050000;28;20425;-76
2023/10/28 13:37:59;;;;;;;30.10;27.67;;;;;;;;;;5050356;28;20486;-76
2023/10/28 13:40:26;;;;;;;23.07;21.57;;;;;;;;;;5050414;28;20454;-75
2023/10/28 13:42:55;;;;;;;22.67;21.27;;;;;;;;;;5048965;28;20478;-76
2023/10/28 13:45:22;;;;;;;21.77;20.77;;;;;;;;;;5048641;28;20451;-76
2023/10/28 13:47:50;;;;;;;21.97;20.77;;;;;;;;;;5050061;28;20473;-75
2023/10/28 13:50:17;;;;;;;22.87;21.30;;;;;;;;;;5049904;28;20434;-77
2023/10/28 13:52:44;;;;;;;21.20;20.20;;;;;;;;;;5050352;28;20457;-77
2023/10/28 13:55:11;;;;;;;20.77;19.67;;;;;;;;;;5049683;28;20446;-76
2023/10/28 13:57:38;;;;;;;21.07;20.07;;;;;;;;;;5054835;28;21013;-77
2023/10/28 14:00:10;;;;;;;21.23;20.33;;;;;;;;;;5065896;28;20485;-77
2023/10/28 14:02:37;;;;;;;20.77;19.53;;;;;;;;;;5050217;28;20493;-78
2023/10/28 14:05:05;;;;;;;20.77;19.77;;;;;;;;;;5052038;28;20459;-77
2023/10/28 14:07:32;;;;;;;21.37;20.27;;;;;;;;;;5056906;28;20475;-78
2023/10/28 14:09:59;;;;;;;20.20;19.10;;;;;;;;;;5050936;28;20909;-76
2023/10/28 14:12:28;;;;;;;19.70;18.80;;;;;;;;;;5051124;28;20466;-77
2023/10/28 14:14:56;;;;;;;20.30;19.00;;;;;;;;;;5052373;28;20481;-76
2023/10/28 14:17:25;;;;;;;18.43;16.97;;;;;;;;;;5067578;28;20490;-77